Coppock, Iowa
Current Conditions -  °F | °C
As of 3:55 AM on Wednesday 26 Nov 2014 (Local Time) from KAWG Reporting Station
Broken Clouds Broken Clouds  
Wind Chill: 15°   Ceiling: 11000
Heat Index: 23°   Visibility: 10mi
Dew Point: 23°   Wind: 7mph
Humidity: 100%   Direction: 110°ESE
Pressure: 30.03"   Gusts: NA
Location:  41.1406°N, 91.6635°W
Report Text: KAWG 260955Z AUTO 11006KT 10SM FEW075 SCT090 BKN110 M05/M05 A3003 RMK AO2
Loading
Personal Weather Stations






























Interactive Weather Map New forecast layout! Learn more

10-Day Weather Forecast

Advertisements
Track Severe Weather on mobile